Terminal Aerodrome Forecast
Issued by NWS

Home | Current Version | Previous Version | Text Only | Print | Product List | Glossary On
Versions: 1 2 3 4 5 6 7 8 9 10 11 12 13 14 15 16 17
000
FTUS46 KSEW 242300
TAFCLM
TAF
KCLM 242330Z 2500/2524 11004KT P6SM OVC017
     FM250600 11006KT P6SM -RA OVC080
     FM251200 16004KT 4SM -RA BR OVC015
     FM251800 VRB03KT P6SM -RA BKN020 OVC035=

USA.gov is the U.S. government's official web portal to all federal, state and local government web resources and services.